sensor_id;sensor_type;location;lat;lon;timestamp;pressure;altitude;pressure_sealevel;temperature;humidity
40920;BME280;26652;50.280;19.026;2022-09-02T00:01:53;98844.69;;;13.67;84.96
40920;BME280;26652;50.280;19.026;2022-09-02T00:04:21;98847.38;;;13.59;85.54
40920;BME280;26652;50.280;19.026;2022-09-02T00:06:44;98855.59;;;13.54;86.00
40920;BME280;26652;50.280;19.026;2022-09-02T00:08:54;98855.41;;;13.49;86.35
40920;BME280;26652;50.280;19.026;2022-09-02T00:11:08;98850.13;;;13.29;86.64
40920;BME280;26652;50.280;19.026;2022-09-02T00:13:21;98851.47;;;13.25;86.49
40920;BME280;26652;50.280;19.026;2022-09-02T00:15:46;98846.59;;;13.30;85.81
40920;BME280;26652;50.280;19.026;2022-09-02T00:18:18;98845.19;;;13.28;85.59
40920;BME280;26652;50.280;19.026;2022-09-02T00:20:34;98837.94;;;13.31;85.81
40920;BME280;26652;50.280;19.026;2022-09-02T00:22:47;98848.41;;;13.36;85.61
40920;BME280;26652;50.280;19.026;2022-09-02T00:25:35;98841.28;;;13.32;85.77
40920;BME280;26652;50.280;19.026;2022-09-02T00:27:44;98850.78;;;13.38;85.39
40920;BME280;26652;50.280;19.026;2022-09-02T00:29:53;98836.66;;;13.42;85.36
40920;BME280;26652;50.280;19.026;2022-09-02T00:32:15;98840.84;;;13.50;85.15
40920;BME280;26652;50.280;19.026;2022-09-02T00:34:57;98841.63;;;13.50;86.15
40920;BME280;26652;50.280;19.026;2022-09-02T00:37:10;98838.91;;;13.52;85.11
40920;BME280;26652;50.280;19.026;2022-09-02T00:39:25;98834.34;;;13.54;85.05
40920;BME280;26652;50.280;19.026;2022-09-02T00:41:47;98834.94;;;13.49;85.61
40920;BME280;26652;50.280;19.026;2022-09-02T00:44:20;98830.00;;;13.48;85.54
40920;BME280;26652;50.280;19.026;2022-09-02T00:46:37;98828.97;;;13.42;85.53
40920;BME280;26652;50.280;19.026;2022-09-02T00:49:13;98835.06;;;13.41;86.31
40920;BME280;26652;50.280;19.026;2022-09-02T00:52:07;98822.19;;;13.28;85.82
40920;BME280;26652;50.280;19.026;2022-09-02T00:54:18;98836.69;;;13.21;86.28
40920;BME280;26652;50.280;19.026;2022-09-02T00:56:50;98834.81;;;13.15;86.94
40920;BME280;26652;50.280;19.026;2022-09-02T00:58:59;98823.94;;;13.06;87.73
40920;BME280;26652;50.280;19.026;2022-09-02T01:01:11;98819.81;;;13.05;87.43
40920;BME280;26652;50.280;19.026;2022-09-02T01:03:34;98810.31;;;12.99;87.64
40920;BME280;26652;50.280;19.026;2022-09-02T01:06:03;98808.41;;;13.07;87.36
40920;BME280;26652;50.280;19.026;2022-09-02T01:08:33;98811.09;;;12.99;86.76
40920;BME280;26652;50.280;19.026;2022-09-02T01:10:55;98822.06;;;12.93;87.74
40920;BME280;26652;50.280;19.026;2022-09-02T01:13:29;98822.41;;;12.90;88.38
40920;BME280;26652;50.280;19.026;2022-09-02T01:15:54;98815.00;;;12.95;88.00
40920;BME280;26652;50.280;19.026;2022-09-02T01:18:05;98822.13;;;13.00;87.12
40920;BME280;26652;50.280;19.026;2022-09-02T01:20:39;98818.47;;;13.09;86.69
40920;BME280;26652;50.280;19.026;2022-09-02T01:22:50;98817.47;;;13.10;86.56
40920;BME280;26652;50.280;19.026;2022-09-02T01:25:07;98814.56;;;13.13;85.87
40920;BME280;26652;50.280;19.026;2022-09-02T01:27:28;98820.66;;;13.12;86.38
40920;BME280;26652;50.280;19.026;2022-09-02T01:29:54;98821.34;;;13.21;85.67
40920;BME280;26652;50.280;19.026;2022-09-02T01:32:25;98819.37;;;13.01;86.47
40920;BME280;26652;50.280;19.026;2022-09-02T01:34:38;98818.94;;;12.98;86.76
40920;BME280;26652;50.280;19.026;2022-09-02T01:36:57;98815.28;;;12.86;86.59
40920;BME280;26652;50.280;19.026;2022-09-02T01:39:23;98819.69;;;12.92;87.36
40920;BME280;26652;50.280;19.026;2022-09-02T01:41:47;98814.56;;;12.92;87.32
40920;BME280;26652;50.280;19.026;2022-09-02T01:44:36;98814.19;;;12.95;87.30
40920;BME280;26652;50.280;19.026;2022-09-02T01:46:50;98823.44;;;12.96;87.11
40920;BME280;26652;50.280;19.026;2022-09-02T01:49:03;98817.00;;;13.00;86.88
40920;BME280;26652;50.280;19.026;2022-09-02T01:51:33;98811.87;;;13.00;86.78
40920;BME280;26652;50.280;19.026;2022-09-02T01:53:50;98819.00;;;13.04;86.56
40920;BME280;26652;50.280;19.026;2022-09-02T01:56:03;98822.16;;;12.85;87.19
40920;BME280;26652;50.280;19.026;2022-09-02T01:58:13;98804.87;;;12.66;88.07
40920;BME280;26652;50.280;19.026;2022-09-02T02:00:22;98820.69;;;12.76;88.61
40920;BME280;26652;50.280;19.026;2022-09-02T02:02:32;98823.44;;;12.74;88.95
40920;BME280;26652;50.280;19.026;2022-09-02T02:04:42;98812.25;;;12.75;88.67
40920;BME280;26652;50.280;19.026;2022-09-02T02:07:07;98802.69;;;12.63;88.34
40920;BME280;26652;50.280;19.026;2022-09-02T02:09:17;98809.38;;;12.64;88.99
40920;BME280;26652;50.280;19.026;2022-09-02T02:11:41;98806.72;;;12.72;88.74
40920;BME280;26652;50.280;19.026;2022-09-02T02:13:49;98807.62;;;12.64;88.94
40920;BME280;26652;50.280;19.026;2022-09-02T02:16:01;98806.91;;;12.70;89.11
40920;BME280;26652;50.280;19.026;2022-09-02T02:18:14;98800.22;;;12.69;88.62
40920;BME280;26652;50.280;19.026;2022-09-02T02:20:23;98804.63;;;12.61;89.64
40920;BME280;26652;50.280;19.026;2022-09-02T02:22:38;98794.25;;;12.62;89.29
40920;BME280;26652;50.280;19.026;2022-09-02T02:24:51;98785.19;;;12.38;90.69
40920;BME280;26652;50.280;19.026;2022-09-02T02:26:58;98804.53;;;12.48;90.25
40920;BME280;26652;50.280;19.026;2022-09-02T02:29:13;98791.50;;;12.42;90.81
40920;BME280;26652;50.280;19.026;2022-09-02T02:31:27;98794.84;;;12.43;90.71
40920;BME280;26652;50.280;19.026;2022-09-02T02:33:36;98793.44;;;12.40;91.06
40920;BME280;26652;50.280;19.026;2022-09-02T02:35:43;98791.88;;;12.39;90.81
40920;BME280;26652;50.280;19.026;2022-09-02T02:38:02;98792.84;;;12.38;91.23
40920;BME280;26652;50.280;19.026;2022-09-02T02:40:08;98796.66;;;12.28;91.75
40920;BME280;26652;50.280;19.026;2022-09-02T02:42:18;98812.03;;;12.34;91.77
40920;BME280;26652;50.280;19.026;2022-09-02T02:44:35;98794.50;;;12.46;92.24
40920;BME280;26652;50.280;19.026;2022-09-02T02:46:56;98796.44;;;12.44;92.21
40920;BME280;26652;50.280;19.026;2022-09-02T02:49:11;98798.22;;;12.50;91.16
40920;BME280;26652;50.280;19.026;2022-09-02T02:51:22;98801.09;;;12.40;90.97
40920;BME280;26652;50.280;19.026;2022-09-02T02:53:33;98795.53;;;12.16;93.98
40920;BME280;26652;50.280;19.026;2022-09-02T02:55:43;98798.41;;;12.27;93.68
40920;BME280;26652;50.280;19.026;2022-09-02T02:58:07;98794.53;;;12.17;93.69
40920;BME280;26652;50.280;19.026;2022-09-02T03:00:31;98802.81;;;12.19;93.88
40920;BME280;26652;50.280;19.026;2022-09-02T03:02:42;98791.75;;;12.11;93.17
40920;BME280;26652;50.280;19.026;2022-09-02T03:04:51;98787.00;;;11.94;94.85
40920;BME280;26652;50.280;19.026;2022-09-02T03:07:07;98790.94;;;12.11;94.17
40920;BME280;26652;50.280;19.026;2022-09-02T03:09:27;98783.84;;;11.92;93.81
40920;BME280;26652;50.280;19.026;2022-09-02T03:12:04;98795.09;;;11.83;94.98
40920;BME280;26652;50.280;19.026;2022-09-02T03:14:34;98793.69;;;11.80;96.02
40920;BME280;26652;50.280;19.026;2022-09-02T03:17:06;98789.25;;;11.59;98.70
40920;BME280;26652;50.280;19.026;2022-09-02T03:19:23;98791.19;;;11.57;100.00
40920;BME280;26652;50.280;19.026;2022-09-02T03:21:34;98784.69;;;11.55;100.00
40920;BME280;26652;50.280;19.026;2022-09-02T03:24:12;98788.19;;;11.68;100.00
40920;BME280;26652;50.280;19.026;2022-09-02T03:26:23;98786.00;;;11.65;100.00
40920;BME280;26652;50.280;19.026;2022-09-02T03:28:32;98789.53;;;11.64;100.00
40920;BME280;26652;50.280;19.026;2022-09-02T03:31:02;98784.31;;;11.58;100.00
40920;BME280;26652;50.280;19.026;2022-09-02T03:33:25;98790.09;;;11.22;100.00
40920;BME280;26652;50.280;19.026;2022-09-02T03:35:52;98779.84;;;11.30;100.00
40920;BME280;26652;50.280;19.026;2022-09-02T03:38:14;98792.00;;;11.43;100.00
40920;BME280;26652;50.280;19.026;2022-09-02T03:40:45;98786.59;;;11.53;100.00
40920;BME280;26652;50.280;19.026;2022-09-02T03:43:01;98792.94;;;11.57;100.00
40920;BME280;26652;50.280;19.026;2022-09-02T03:45:13;98794.94;;;11.46;100.00
40920;BME280;26652;50.280;19.026;2022-09-02T03:47:45;98792.06;;;11.50;100.00
40920;BME280;26652;50.280;19.026;2022-09-02T03:50:00;98795.56;;;11.34;100.00
40920;BME280;26652;50.280;19.026;2022-09-02T03:52:10;98797.78;;;11.37;100.00
40920;BME280;26652;50.280;19.026;2022-09-02T03:54:32;98805.16;;;11.32;100.00
40920;BME280;26652;50.280;19.026;2022-09-02T03:57:08;98801.44;;;11.20;100.00
40920;BME280;26652;50.280;19.026;2022-09-02T03:59:20;98801.81;;;11.31;100.00
40920;BME280;26652;50.280;19.026;2022-09-02T04:01:32;98807.97;;;11.37;100.00
40920;BME280;26652;50.280;19.026;2022-09-02T04:03:55;98795.47;;;11.27;100.00
40920;BME280;26652;50.280;19.026;2022-09-02T04:06:24;98809.97;;;11.27;100.00
40920;BME280;26652;50.280;19.026;2022-09-02T04:08:40;98802.06;;;11.22;100.00
40920;BME280;26652;50.280;19.026;2022-09-02T04:10:50;98807.16;;;11.22;100.00
40920;BME280;26652;50.280;19.026;2022-09-02T04:13:26;98811.69;;;11.11;100.00
40920;BME280;26652;50.280;19.026;2022-09-02T04:15:40;98814.34;;;11.18;100.00
40920;BME280;26652;50.280;19.026;2022-09-02T04:17:47;98807.41;;;11.27;100.00
40920;BME280;26652;50.280;19.026;2022-09-02T04:20:00;98803.91;;;11.28;100.00
40920;BME280;26652;50.280;19.026;2022-09-02T04:22:09;98809.00;;;11.28;100.00
40920;BME280;26652;50.280;19.026;2022-09-02T04:24:18;98810.94;;;11.26;100.00
40920;BME280;26652;50.280;19.026;2022-09-02T04:26:31;98802.25;;;11.35;100.00
40920;BME280;26652;50.280;19.026;2022-09-02T04:28:42;98807.25;;;11.28;100.00
40920;BME280;26652;50.280;19.026;2022-09-02T04:30:57;98805.31;;;11.30;100.00
40920;BME280;26652;50.280;19.026;2022-09-02T04:33:14;98810.13;;;11.25;100.00
40920;BME280;26652;50.280;19.026;2022-09-02T04:35:29;98811.50;;;11.13;100.00
40920;BME280;26652;50.280;19.026;2022-09-02T04:37:54;98811.75;;;11.03;100.00
40920;BME280;26652;50.280;19.026;2022-09-02T04:40:14;98799.22;;;11.17;100.00
40920;BME280;26652;50.280;19.026;2022-09-02T04:42:23;98808.03;;;11.29;100.00
40920;BME280;26652;50.280;19.026;2022-09-02T04:44:31;98799.38;;;11.15;100.00
40920;BME280;26652;50.280;19.026;2022-09-02T04:46:45;98814.28;;;11.26;100.00
40920;BME280;26652;50.280;19.026;2022-09-02T04:48:54;98808.41;;;11.40;100.00
40920;BME280;26652;50.280;19.026;2022-09-02T04:51:05;98805.31;;;11.45;100.00
40920;BME280;26652;50.280;19.026;2022-09-02T04:53:16;98813.00;;;11.60;100.00
40920;BME280;26652;50.280;19.026;2022-09-02T04:55:22;98805.00;;;11.63;100.00
40920;BME280;26652;50.280;19.026;2022-09-02T04:57:34;98802.63;;;11.76;100.00
40920;BME280;26652;50.280;19.026;2022-09-02T04:59:48;98809.50;;;11.75;100.00
40920;BME280;26652;50.280;19.026;2022-09-02T05:01:57;98809.00;;;11.80;100.00
40920;BME280;26652;50.280;19.026;2022-09-02T05:04:08;98808.44;;;11.70;100.00
40920;BME280;26652;50.280;19.026;2022-09-02T05:06:28;98815.75;;;11.88;100.00
40920;BME280;26652;50.280;19.026;2022-09-02T05:08:38;98814.88;;;11.95;100.00
40920;BME280;26652;50.280;19.026;2022-09-02T05:10:45;98802.47;;;12.07;100.00
40920;BME280;26652;50.280;19.026;2022-09-02T05:12:59;98798.34;;;12.06;100.00
40920;BME280;26652;50.280;19.026;2022-09-02T05:15:08;98803.59;;;12.19;100.00
40920;BME280;26652;50.280;19.026;2022-09-02T05:17:20;98797.53;;;12.20;100.00
40920;BME280;26652;50.280;19.026;2022-09-02T05:19:40;98807.72;;;12.35;100.00
40920;BME280;26652;50.280;19.026;2022-09-02T05:22:07;98800.84;;;12.35;100.00
40920;BME280;26652;50.280;19.026;2022-09-02T05:24:29;98810.47;;;12.55;100.00
40920;BME280;26652;50.280;19.026;2022-09-02T05:26:51;98803.13;;;12.66;100.00
40920;BME280;26652;50.280;19.026;2022-09-02T05:29:18;98810.72;;;12.81;98.77
40920;BME280;26652;50.280;19.026;2022-09-02T05:31:51;98803.91;;;12.88;96.79
40920;BME280;26652;50.280;19.026;2022-09-02T05:34:04;98806.13;;;12.91;96.18
40920;BME280;26652;50.280;19.026;2022-09-02T05:36:18;98809.75;;;13.03;92.41
40920;BME280;26652;50.280;19.026;2022-09-02T05:38:40;98798.25;;;13.14;92.01
40920;BME280;26652;50.280;19.026;2022-09-02T05:41:10;98808.00;;;13.25;90.02
40920;BME280;26652;50.280;19.026;2022-09-02T05:43:41;98794.06;;;13.28;89.50
40920;BME280;26652;50.280;19.026;2022-09-02T05:46:14;98803.63;;;13.19;85.52
40920;BME280;26652;50.280;19.026;2022-09-02T05:48:31;98797.47;;;13.14;86.44
40920;BME280;26652;50.280;19.026;2022-09-02T05:51:03;98796.19;;;13.24;85.32
40920;BME280;26652;50.280;19.026;2022-09-02T05:53:22;98798.13;;;13.44;84.86
40920;BME280;26652;50.280;19.026;2022-09-02T05:55:34;98805.25;;;13.55;85.01
40920;BME280;26652;50.280;19.026;2022-09-02T05:58:00;98809.78;;;13.59;83.19
40920;BME280;26652;50.280;19.026;2022-09-02T06:00:23;98805.75;;;13.71;83.61
40920;BME280;26652;50.280;19.026;2022-09-02T06:02:51;98805.81;;;13.85;83.56
40920;BME280;26652;50.280;19.026;2022-09-02T06:05:20;98802.38;;;14.05;81.10
40920;BME280;26652;50.280;19.026;2022-09-02T06:08:01;98807.75;;;14.17;81.28
40920;BME280;26652;50.280;19.026;2022-09-02T06:10:11;98808.97;;;14.28;80.95
40920;BME280;26652;50.280;19.026;2022-09-02T06:12:23;98804.09;;;14.39;81.69
40920;BME280;26652;50.280;19.026;2022-09-02T06:14:45;98811.44;;;14.49;79.77
40920;BME280;26652;50.280;19.026;2022-09-02T06:16:56;98807.09;;;14.56;78.69
40920;BME280;26652;50.280;19.026;2022-09-02T06:19:04;98808.28;;;14.67;78.67
40920;BME280;26652;50.280;19.026;2022-09-02T06:21:22;98815.03;;;14.81;76.45
40920;BME280;26652;50.280;19.026;2022-09-02T06:23:34;98819.19;;;14.89;76.49
40920;BME280;26652;50.280;19.026;2022-09-02T06:25:46;98821.34;;;14.92;76.23
40920;BME280;26652;50.280;19.026;2022-09-02T06:27:57;98821.38;;;15.05;75.42
40920;BME280;26652;50.280;19.026;2022-09-02T06:30:09;98824.12;;;15.17;75.07
40920;BME280;26652;50.280;19.026;2022-09-02T06:32:16;98823.94;;;15.31;75.81
40920;BME280;26652;50.280;19.026;2022-09-02T06:34:35;98813.09;;;15.43;73.77
40920;BME280;26652;50.280;19.026;2022-09-02T06:36:56;98823.97;;;15.58;72.83
40920;BME280;26652;50.280;19.026;2022-09-02T06:39:10;98820.72;;;15.89;71.39
40920;BME280;26652;50.280;19.026;2022-09-02T06:41:25;98822.22;;;16.54;70.04
40920;BME280;26652;50.280;19.026;2022-09-02T06:43:43;98819.19;;;17.27;67.23
40920;BME280;26652;50.280;19.026;2022-09-02T06:45:57;98822.06;;;17.98;64.24
40920;BME280;26652;50.280;19.026;2022-09-02T06:48:13;98827.41;;;18.15;62.80
40920;BME280;26652;50.280;19.026;2022-09-02T06:50:22;98831.38;;;18.66;61.77
40920;BME280;26652;50.280;19.026;2022-09-02T06:52:30;98831.44;;;19.13;60.46
40920;BME280;26652;50.280;19.026;2022-09-02T06:54:46;98832.81;;;19.39;58.55
40920;BME280;26652;50.280;19.026;2022-09-02T06:56:58;98828.25;;;19.52;56.54
40920;BME280;26652;50.280;19.026;2022-09-02T06:59:18;98843.31;;;19.55;56.92
40920;BME280;26652;50.280;19.026;2022-09-02T07:01:47;98825.31;;;19.37;56.89
40920;BME280;26652;50.280;19.026;2022-09-02T07:04:01;98838.78;;;19.51;57.28
40920;BME280;26652;50.280;19.026;2022-09-02T07:06:23;98842.37;;;19.73;55.88
40920;BME280;26652;50.280;19.026;2022-09-02T07:08:37;98845.75;;;19.74;54.80
40920;BME280;26652;50.280;19.026;2022-09-02T07:10:44;98840.59;;;19.74;54.50
40920;BME280;26652;50.280;19.026;2022-09-02T07:12:58;98839.12;;;19.66;56.19
40920;BME280;26652;50.280;19.026;2022-09-02T07:15:12;98838.22;;;19.49;55.39
40920;BME280;26652;50.280;19.026;2022-09-02T07:17:20;98843.41;;;19.61;55.06
40920;BME280;26652;50.280;19.026;2022-09-02T07:19:35;98846.88;;;19.54;58.24
40920;BME280;26652;50.280;19.026;2022-09-02T07:21:49;98847.69;;;19.55;56.68
40920;BME280;26652;50.280;19.026;2022-09-02T07:24:01;98842.19;;;19.63;56.13
40920;BME280;26652;50.280;19.026;2022-09-02T07:26:14;98840.47;;;19.69;56.21
40920;BME280;26652;50.280;19.026;2022-09-02T07:28:37;98847.56;;;19.62;57.22
40920;BME280;26652;50.280;19.026;2022-09-02T07:30:46;98847.12;;;19.65;57.18
40920;BME280;26652;50.280;19.026;2022-09-02T07:33:07;98845.31;;;19.65;57.75
40920;BME280;26652;50.280;19.026;2022-09-02T07:35:19;98841.50;;;19.68;57.56
40920;BME280;26652;50.280;19.026;2022-09-02T07:37:27;98847.91;;;19.53;57.31
40920;BME280;26652;50.280;19.026;2022-09-02T07:39:41;98842.50;;;19.55;57.52
40920;BME280;26652;50.280;19.026;2022-09-02T07:41:51;98843.53;;;19.66;59.45
40920;BME280;26652;50.280;19.026;2022-09-02T07:44:10;98849.47;;;19.54;58.50
40920;BME280;26652;50.280;19.026;2022-09-02T07:46:19;98842.03;;;19.46;57.65
40920;BME280;26652;50.280;19.026;2022-09-02T07:48:34;98843.50;;;19.42;57.23
40920;BME280;26652;50.280;19.026;2022-09-02T07:50:43;98846.28;;;19.41;57.21
40920;BME280;26652;50.280;19.026;2022-09-02T07:52:58;98840.00;;;19.37;57.75
40920;BME280;26652;50.280;19.026;2022-09-02T07:55:33;98851.00;;;19.44;56.55
40920;BME280;26652;50.280;19.026;2022-09-02T07:57:39;98840.22;;;19.35;56.72
40920;BME280;26652;50.280;19.026;2022-09-02T07:59:48;98844.25;;;19.31;58.93
40920;BME280;26652;50.280;19.026;2022-09-02T08:02:02;98846.97;;;19.24;58.52
40920;BME280;26652;50.280;19.026;2022-09-02T08:04:16;98836.97;;;19.28;58.43
40920;BME280;26652;50.280;19.026;2022-09-02T08:06:34;98836.72;;;19.06;58.14
40920;BME280;26652;50.280;19.026;2022-09-02T08:09:12;98838.25;;;18.95;57.68
40920;BME280;26652;50.280;19.026;2022-09-02T08:11:53;98837.34;;;18.90;58.83
40920;BME280;26652;50.280;19.026;2022-09-02T08:14:26;98833.81;;;19.14;60.34
40920;BME280;26652;50.280;19.026;2022-09-02T08:17:13;98832.25;;;19.25;57.85
40920;BME280;26652;50.280;19.026;2022-09-02T08:19:47;98833.63;;;19.39;56.96
40920;BME280;26652;50.280;19.026;2022-09-02T08:22:22;98826.97;;;19.32;56.59
40920;BME280;26652;50.280;19.026;2022-09-02T08:24:44;98833.94;;;19.43;58.11
40920;BME280;26652;50.280;19.026;2022-09-02T08:27:09;98829.03;;;19.53;58.96
40920;BME280;26652;50.280;19.026;2022-09-02T08:29:53;98830.59;;;19.66;58.40
40920;BME280;26652;50.280;19.026;2022-09-02T08:32:40;98825.31;;;19.72;57.52
40920;BME280;26652;50.280;19.026;2022-09-02T08:35:07;98835.72;;;19.77;52.86
40920;BME280;26652;50.280;19.026;2022-09-02T08:37:26;98830.38;;;19.55;54.59
40920;BME280;26652;50.280;19.026;2022-09-02T08:39:39;98827.09;;;19.48;54.30
40920;BME280;26652;50.280;19.026;2022-09-02T08:43:04;98833.16;;;19.31;53.83
40920;BME280;26652;50.280;19.026;2022-09-02T08:47:40;98834.72;;;19.32;54.63
40920;BME280;26652;50.280;19.026;2022-09-02T08:49:52;98818.34;;;19.26;53.19
40920;BME280;26652;50.280;19.026;2022-09-02T08:52:45;98832.25;;;19.48;53.09
40920;BME280;26652;50.280;19.026;2022-09-02T08:55:18;98826.78;;;19.68;51.29
40920;BME280;26652;50.280;19.026;2022-09-02T08:57:30;98821.50;;;19.40;52.12
40920;BME280;26652;50.280;19.026;2022-09-02T09:00:17;98822.38;;;19.45;53.31
40920;BME280;26652;50.280;19.026;2022-09-02T09:02:56;98823.97;;;19.46;51.56
40920;BME280;26652;50.280;19.026;2022-09-02T09:11:22;98810.38;;;19.39;51.20
40920;BME280;26652;50.280;19.026;2022-09-02T09:14:31;98826.47;;;19.53;50.44
40920;BME280;26652;50.280;19.026;2022-09-02T09:19:53;98795.47;;;19.53;49.25
40920;BME280;26652;50.280;19.026;2022-09-02T09:22:37;98797.72;;;19.61;49.70
40920;BME280;26652;50.280;19.026;2022-09-02T09:25:15;98812.59;;;19.82;48.42
40920;BME280;26652;50.280;19.026;2022-09-02T09:27:37;98809.59;;;19.50;47.50
40920;BME280;26652;50.280;19.026;2022-09-02T09:30:11;98805.78;;;19.41;47.84
40920;BME280;26652;50.280;19.026;2022-09-02T09:32:43;98806.22;;;19.38;47.69
40920;BME280;26652;50.280;19.026;2022-09-02T09:35:14;98798.13;;;19.46;48.26
40920;BME280;26652;50.280;19.026;2022-09-02T09:37:42;98801.28;;;19.72;48.17
40920;BME280;26652;50.280;19.026;2022-09-02T09:40:31;98806.91;;;19.69;45.24
40920;BME280;26652;50.280;19.026;2022-09-02T09:43:15;98805.50;;;19.89;45.35
40920;BME280;26652;50.280;19.026;2022-09-02T09:45:48;98814.66;;;19.57;44.79
40920;BME280;26652;50.280;19.026;2022-09-02T09:48:31;98810.50;;;19.44;45.60
40920;BME280;26652;50.280;19.026;2022-09-02T09:51:13;98814.41;;;19.47;46.04
40920;BME280;26652;50.280;19.026;2022-09-02T09:53:36;98812.28;;;19.32;46.98
40920;BME280;26652;50.280;19.026;2022-09-02T09:58:50;98802.28;;;19.47;49.05
40920;BME280;26652;50.280;19.026;2022-09-02T10:01:50;98795.78;;;19.68;47.98
40920;BME280;26652;50.280;19.026;2022-09-02T10:04:09;98791.75;;;19.72;48.64
40920;BME280;26652;50.280;19.026;2022-09-02T10:06:40;98786.72;;;19.94;47.21
40920;BME280;26652;50.280;19.026;2022-09-02T10:12:00;98781.84;;;20.09;44.58
40920;BME280;26652;50.280;19.026;2022-09-02T10:14:21;98772.47;;;20.20;44.52
40920;BME280;26652;50.280;19.026;2022-09-02T10:19:37;98784.34;;;20.61;47.03
40920;BME280;26652;50.280;19.026;2022-09-02T10:25:29;98788.09;;;20.53;45.72
40920;BME280;26652;50.280;19.026;2022-09-02T10:30:35;98782.91;;;20.25;47.09
40920;BME280;26652;50.280;19.026;2022-09-02T10:35:40;98784.84;;;20.18;47.38
40920;BME280;26652;50.280;19.026;2022-09-02T10:44:30;98772.06;;;20.11;45.30
40920;BME280;26652;50.280;19.026;2022-09-02T10:47:21;98779.88;;;20.28;45.87
40920;BME280;26652;50.280;19.026;2022-09-02T10:50:04;98784.47;;;20.26;45.34
40920;BME280;26652;50.280;19.026;2022-09-02T10:58:09;98779.69;;;20.18;46.68
40920;BME280;26652;50.280;19.026;2022-09-02T11:00:31;98765.13;;;20.29;45.92
40920;BME280;26652;50.280;19.026;2022-09-02T11:05:46;98779.25;;;20.38;46.07
40920;BME280;26652;50.280;19.026;2022-09-02T11:08:09;98771.09;;;20.29;44.79
40920;BME280;26652;50.280;19.026;2022-09-02T11:10:33;98760.38;;;20.09;45.67
40920;BME280;26652;50.280;19.026;2022-09-02T11:12:53;98767.25;;;20.03;44.53
40920;BME280;26652;50.280;19.026;2022-09-02T11:15:11;98763.78;;;19.98;44.64
40920;BME280;26652;50.280;19.026;2022-09-02T11:22:54;98764.81;;;20.25;44.39
40920;BME280;26652;50.280;19.026;2022-09-02T11:25:33;98767.13;;;20.10;43.46
40920;BME280;26652;50.280;19.026;2022-09-02T11:30:55;98762.84;;;20.15;44.59
40920;BME280;26652;50.280;19.026;2022-09-02T11:33:23;98760.56;;;20.19;43.96
40920;BME280;26652;50.280;19.026;2022-09-02T11:35:36;98748.25;;;20.38;40.24
40920;BME280;26652;50.280;19.026;2022-09-02T11:37:51;98753.69;;;20.53;41.47
40920;BME280;26652;50.280;19.026;2022-09-02T11:43:16;98751.56;;;20.50;41.48
40920;BME280;26652;50.280;19.026;2022-09-02T11:45:55;98741.94;;;20.62;40.67
40920;BME280;26652;50.280;19.026;2022-09-02T11:53:50;98750.06;;;21.04;41.55
40920;BME280;26652;50.280;19.026;2022-09-02T11:56:19;98746.47;;;21.22;39.15
40920;BME280;26652;50.280;19.026;2022-09-02T11:58:51;98753.53;;;21.27;39.52
40920;BME280;26652;50.280;19.026;2022-09-02T12:03:29;98754.28;;;21.44;40.77
40920;BME280;26652;50.280;19.026;2022-09-02T12:06:13;98750.53;;;21.35;39.83
40920;BME280;26652;50.280;19.026;2022-09-02T12:08:55;98741.78;;;21.41;40.56
40920;BME280;26652;50.280;19.026;2022-09-02T12:11:43;98752.03;;;21.14;42.08
40920;BME280;26652;50.280;19.026;2022-09-02T12:13:57;98746.88;;;20.80;42.03
40920;BME280;26652;50.280;19.026;2022-09-02T12:16:58;98734.16;;;20.45;43.01
40920;BME280;26652;50.280;19.026;2022-09-02T12:19:38;98736.28;;;20.48;42.97
40920;BME280;26652;50.280;19.026;2022-09-02T12:22:23;98728.34;;;20.88;44.17
40920;BME280;26652;50.280;19.026;2022-09-02T12:27:35;98724.44;;;21.41;41.10
40920;BME280;26652;50.280;19.026;2022-09-02T12:29:46;98711.81;;;21.45;41.44
40920;BME280;26652;50.280;19.026;2022-09-02T12:34:58;98724.28;;;21.48;41.09
40920;BME280;26652;50.280;19.026;2022-09-02T12:40:10;98728.50;;;20.99;40.53
40920;BME280;26652;50.280;19.026;2022-09-02T12:42:42;98707.97;;;20.92;40.72
40920;BME280;26652;50.280;19.026;2022-09-02T12:45:11;98711.47;;;21.03;42.80
40920;BME280;26652;50.280;19.026;2022-09-02T12:53:32;98709.28;;;20.95;43.21
40920;BME280;26652;50.280;19.026;2022-09-02T12:55:59;98706.06;;;21.04;42.94
40920;BME280;26652;50.280;19.026;2022-09-02T12:58:23;98692.53;;;21.36;43.32
40920;BME280;26652;50.280;19.026;2022-09-02T13:01:08;98685.53;;;21.58;40.38
40920;BME280;26652;50.280;19.026;2022-09-02T13:09:35;98700.72;;;21.28;39.27
40920;BME280;26652;50.280;19.026;2022-09-02T13:12:23;98694.50;;;21.12;39.27
40920;BME280;26652;50.280;19.026;2022-09-02T13:32:43;98693.13;;;21.43;39.91
40920;BME280;26652;50.280;19.026;2022-09-02T13:34:41;98686.44;;;21.08;40.71
40920;BME280;26652;50.280;19.026;2022-09-02T13:37:02;98688.25;;;21.08;40.22
40920;BME280;26652;50.280;19.026;2022-09-02T13:39:31;98691.59;;;21.25;40.46
40920;BME280;26652;50.280;19.026;2022-09-02T13:41:53;98681.56;;;21.50;40.59
40920;BME280;26652;50.280;19.026;2022-09-02T13:44:34;98677.34;;;21.44;41.05
40920;BME280;26652;50.280;19.026;2022-09-02T13:47:19;98679.69;;;21.68;41.32
40920;BME280;26652;50.280;19.026;2022-09-02T13:49:40;98676.31;;;21.45;40.06
40920;BME280;26652;50.280;19.026;2022-09-02T13:51:52;98681.91;;;21.59;40.47
40920;BME280;26652;50.280;19.026;2022-09-02T13:54:31;98678.94;;;21.72;40.48
40920;BME280;26652;50.280;19.026;2022-09-02T13:56:53;98670.19;;;21.51;38.06
40920;BME280;26652;50.280;19.026;2022-09-02T13:59:37;98677.00;;;21.19;38.16
40920;BME280;26652;50.280;19.026;2022-09-02T14:01:52;98673.72;;;21.24;38.64